createdAt,value
2023-02-25T00:00:48.302Z,956.11
2023-02-25T00:02:03.064Z,956.11
2023-02-25T00:02:48.360Z,956.13
2023-02-25T00:03:48.417Z,956.17
2023-02-25T00:04:48.299Z,956.20
2023-02-25T00:05:48.365Z,956.16
2023-02-25T00:06:48.260Z,956.18
2023-02-25T00:07:48.382Z,956.16
2023-02-25T00:08:48.224Z,956.16
2023-02-25T00:09:48.296Z,956.16
2023-02-25T00:10:48.167Z,956.13
2023-02-25T00:11:48.317Z,956.12
2023-02-25T00:12:48.186Z,956.14
2023-02-25T00:13:48.275Z,956.17
2023-02-25T00:14:48.121Z,956.18
2023-02-25T00:15:48.278Z,956.21
2023-02-25T00:16:48.185Z,956.29
2023-02-25T00:17:48.241Z,956.31
2023-02-25T00:18:48.075Z,956.27
2023-02-25T00:19:48.217Z,956.28
2023-02-25T00:20:48.061Z,956.27
2023-02-25T00:21:48.174Z,956.30
2023-02-25T00:22:48.010Z,956.28
2023-02-25T00:23:48.184Z,956.27
2023-02-25T00:24:48.147Z,956.30
2023-02-25T00:25:47.994Z,956.31
2023-02-25T00:26:48.195Z,956.37
2023-02-25T00:27:47.986Z,956.37
2023-02-25T00:28:48.008Z,956.38
2023-02-25T00:29:47.992Z,956.37
2023-02-25T00:30:48.106Z,956.40
2023-02-25T00:31:48.201Z,956.39
2023-02-25T00:32:48.111Z,956.37
2023-02-25T00:33:47.906Z,956.43
2023-02-25T00:34:48.048Z,956.45
2023-02-25T00:35:47.903Z,956.49
2023-02-25T00:36:48.101Z,956.51
2023-02-25T00:37:47.852Z,956.55
2023-02-25T00:38:48.116Z,956.57
2023-02-25T00:39:47.958Z,956.53
2023-02-25T00:40:47.795Z,956.44
2023-02-25T00:41:47.904Z,956.45
2023-02-25T00:42:47.782Z,956.41
2023-02-25T00:43:47.813Z,956.41
2023-02-25T00:44:47.789Z,956.38
2023-02-25T00:45:47.842Z,956.34
2023-02-25T00:46:47.774Z,956.26
2023-02-25T00:47:47.834Z,956.24
2023-02-25T00:48:47.685Z,956.19
2023-02-25T00:49:47.861Z,956.23
2023-02-25T00:50:47.649Z,956.27
2023-02-25T00:51:47.923Z,956.33
2023-02-25T00:52:47.633Z,956.44
2023-02-25T00:53:47.898Z,956.48
2023-02-25T00:54:47.620Z,956.52
2023-02-25T00:55:47.694Z,956.51
2023-02-25T00:56:47.610Z,956.53
2023-02-25T00:57:47.719Z,956.57
2023-02-25T00:58:47.584Z,956.55
2023-02-25T00:59:47.724Z,956.52
2023-02-25T01:00:52.112Z,956.53
2023-02-25T01:01:47.614Z,956.52
2023-02-25T01:02:47.668Z,956.50
2023-02-25T01:03:47.528Z,956.53
2023-02-25T01:04:47.648Z,956.48
2023-02-25T01:05:47.707Z,956.48
2023-02-25T01:06:47.461Z,956.50
2023-02-25T01:07:47.736Z,956.40
2023-02-25T01:08:47.423Z,956.39
2023-02-25T01:09:47.504Z,956.42
2023-02-25T01:10:47.483Z,956.46
2023-02-25T01:11:47.450Z,956.43
2023-02-25T01:12:47.536Z,956.42
2023-02-25T01:13:47.417Z,956.40
2023-02-25T01:14:47.507Z,956.41
2023-02-25T01:15:47.610Z,956.40
2023-02-25T01:16:47.350Z,956.44
2023-02-25T01:17:47.541Z,956.41
2023-02-25T01:18:47.291Z,956.45
2023-02-25T01:19:47.562Z,956.47
2023-02-25T01:20:47.265Z,956.46
2023-02-25T01:21:47.587Z,956.52
2023-02-25T01:22:47.369Z,956.51
2023-02-25T01:23:47.388Z,956.51
2023-02-25T01:24:47.260Z,956.55
2023-02-25T01:25:47.309Z,956.60
2023-02-25T01:26:47.226Z,956.62
2023-02-25T01:27:47.347Z,956.69
2023-02-25T01:28:47.184Z,956.69
2023-02-25T01:29:47.387Z,956.71
2023-02-25T01:30:47.171Z,956.73
2023-02-25T01:31:47.554Z,956.74
2023-02-25T01:32:47.114Z,956.61
2023-02-25T01:33:47.297Z,956.56
2023-02-25T01:34:47.114Z,956.55
2023-02-25T01:35:47.176Z,956.53
2023-02-25T01:36:47.056Z,956.53
2023-02-25T01:37:47.214Z,956.51
2023-02-25T01:38:47.038Z,956.53
2023-02-25T01:39:47.177Z,956.53
2023-02-25T01:40:47.007Z,956.53
2023-02-25T01:41:47.097Z,956.50
2023-02-25T01:42:46.995Z,956.54
2023-02-25T01:43:47.155Z,956.54
2023-02-25T01:44:46.957Z,956.55
2023-02-25T01:45:47.120Z,956.57
2023-02-25T01:46:47.226Z,956.55
2023-02-25T01:47:46.944Z,956.59
2023-02-25T01:48:47.062Z,956.58
2023-02-25T01:49:46.931Z,956.61
2023-02-25T01:50:47.096Z,956.58
2023-02-25T01:51:47.095Z,956.66
2023-02-25T01:52:46.849Z,956.66
2023-02-25T01:53:46.983Z,956.67
2023-02-25T01:54:46.863Z,956.74
2023-02-25T01:55:47.086Z,956.74
2023-02-25T01:56:46.820Z,956.76
2023-02-25T01:57:46.917Z,956.72
2023-02-25T01:58:46.793Z,956.74
2023-02-25T01:59:46.980Z,956.72
2023-02-25T02:00:46.833Z,956.65
2023-02-25T02:01:46.935Z,956.64
2023-02-25T02:02:46.765Z,956.71
2023-02-25T02:03:46.844Z,956.72
2023-02-25T02:04:46.698Z,956.70
2023-02-25T02:05:46.905Z,956.73
2023-02-25T02:06:46.714Z,956.72
2023-02-25T02:07:46.765Z,956.72
2023-02-25T02:08:46.666Z,956.71
2023-02-25T02:09:46.783Z,956.78
2023-02-25T02:10:46.643Z,956.76
2023-02-25T02:11:46.854Z,956.76
2023-02-25T02:12:46.618Z,956.75
2023-02-25T02:13:46.704Z,956.76
2023-02-25T02:14:46.589Z,956.80
2023-02-25T02:15:46.726Z,956.83
2023-02-25T02:16:46.565Z,956.88
2023-02-25T02:17:46.787Z,956.93
2023-02-25T02:18:46.534Z,956.91
2023-02-25T02:19:46.653Z,956.92
2023-02-25T02:20:46.544Z,956.92
2023-02-25T02:21:46.685Z,956.95
2023-02-25T02:22:46.699Z,956.98
2023-02-25T02:23:46.486Z,957.02
2023-02-25T02:24:46.558Z,956.92
2023-02-25T02:25:46.481Z,956.90
2023-02-25T02:26:46.623Z,956.81
2023-02-25T02:27:46.597Z,956.73
2023-02-25T02:28:46.423Z,956.66
2023-02-25T02:29:46.517Z,956.67
2023-02-25T02:30:46.461Z,956.64
2023-02-25T02:31:46.617Z,956.65
2023-02-25T02:32:46.536Z,956.61
2023-02-25T02:33:46.544Z,956.61
2023-02-25T02:34:46.336Z,956.65
2023-02-25T02:35:46.506Z,956.62
2023-02-25T02:36:46.314Z,956.68
2023-02-25T02:37:46.524Z,956.67
2023-02-25T02:38:46.309Z,956.71
2023-02-25T02:39:46.485Z,956.70
2023-02-25T02:40:46.278Z,956.67
2023-02-25T02:41:46.544Z,956.68
2023-02-25T02:42:46.237Z,956.69
2023-02-25T02:43:46.359Z,956.71
2023-02-25T02:44:46.221Z,956.65
2023-02-25T02:45:46.377Z,956.68
2023-02-25T02:46:46.181Z,956.71
2023-02-25T02:47:46.428Z,956.76
2023-02-25T02:48:46.170Z,956.78
2023-02-25T02:49:46.239Z,956.76
2023-02-25T02:50:46.144Z,956.73
2023-02-25T02:51:46.270Z,956.73
2023-02-25T02:52:46.134Z,956.74
2023-02-25T02:53:46.279Z,956.72
2023-02-25T02:54:46.078Z,956.77
2023-02-25T02:55:46.193Z,956.80
2023-02-25T02:56:46.048Z,956.85
2023-02-25T02:57:46.242Z,956.83
2023-02-25T02:58:46.122Z,956.85
2023-02-25T02:59:46.041Z,956.86
2023-02-25T03:00:46.218Z,956.83
2023-02-25T03:01:46.015Z,956.82
2023-02-25T03:02:46.209Z,956.85
2023-02-25T03:03:46.150Z,956.85
2023-02-25T03:04:45.954Z,956.86
2023-02-25T03:05:46.060Z,956.84
2023-02-25T03:06:45.926Z,956.85
2023-02-25T03:07:46.113Z,956.86
2023-02-25T03:08:45.928Z,956.85
2023-02-25T03:09:46.096Z,956.90
2023-02-25T03:10:45.865Z,956.85
2023-02-25T03:11:45.974Z,956.88
2023-02-25T03:12:45.843Z,956.91
2023-02-25T03:13:46.035Z,956.93
2023-02-25T03:14:45.816Z,956.96
2023-02-25T03:15:46.008Z,956.94
2023-02-25T03:16:45.858Z,956.93
2023-02-25T03:17:46.018Z,956.96
2023-02-25T03:18:45.782Z,956.95
2023-02-25T03:19:45.869Z,956.96
2023-02-25T03:20:45.743Z,956.96
2023-02-25T03:21:45.852Z,957.01
2023-02-25T03:22:45.730Z,956.98
2023-02-25T03:23:45.866Z,956.95
2023-02-25T03:24:45.723Z,956.98
2023-02-25T03:25:45.881Z,956.99
2023-02-25T03:26:45.688Z,956.96
2023-02-25T03:27:45.922Z,956.90
2023-02-25T03:28:45.675Z,956.90
2023-02-25T03:29:45.941Z,956.89
2023-02-25T03:30:45.643Z,956.90
2023-02-25T03:31:45.887Z,956.93
2023-02-25T03:32:45.616Z,956.89
2023-02-25T03:33:45.733Z,956.90
2023-02-25T03:34:45.765Z,956.91
2023-02-25T03:35:45.593Z,956.93
2023-02-25T03:36:45.740Z,956.88
2023-02-25T03:37:45.574Z,956.92
2023-02-25T03:38:45.749Z,956.97
2023-02-25T03:39:45.827Z,956.92
2023-02-25T03:40:45.501Z,956.96
2023-02-25T03:41:45.802Z,956.94
2023-02-25T03:42:45.482Z,957.02
2023-02-25T03:43:45.607Z,957.02
2023-02-25T03:44:45.458Z,957.01
2023-02-25T03:45:45.649Z,957.05
2023-02-25T03:46:45.433Z,957.07
2023-02-25T03:47:45.521Z,957.10
2023-02-25T03:48:45.396Z,957.08
2023-02-25T03:49:45.622Z,957.11
2023-02-25T03:50:45.405Z,957.11
2023-02-25T03:51:45.606Z,957.07
2023-02-25T03:52:45.360Z,957.08
2023-02-25T03:53:45.572Z,957.04
2023-02-25T03:54:45.324Z,957.08
2023-02-25T03:55:45.585Z,957.08
2023-02-25T03:56:45.288Z,957.11
2023-02-25T03:57:45.444Z,957.08
2023-02-25T03:58:45.295Z,957.09
2023-02-25T03:59:45.401Z,957.11
2023-02-25T04:00:45.241Z,957.13
2023-02-25T04:01:45.436Z,957.11
2023-02-25T04:02:45.378Z,957.14
2023-02-25T04:03:45.322Z,957.14
2023-02-25T04:04:45.297Z,957.15
2023-02-25T04:05:45.349Z,957.21
2023-02-25T04:06:45.183Z,957.18
2023-02-25T04:07:45.314Z,957.22
2023-02-25T04:08:45.145Z,957.19
2023-02-25T04:09:45.321Z,957.23
2023-02-25T04:10:45.262Z,957.21
2023-02-25T04:11:45.129Z,957.22
2023-02-25T04:12:45.274Z,957.20
2023-02-25T04:13:45.128Z,957.24
2023-02-25T04:14:45.187Z,957.19
2023-02-25T04:15:45.093Z,957.21
2023-02-25T04:16:45.205Z,957.21
2023-02-25T04:17:45.099Z,957.19
2023-02-25T04:18:45.146Z,957.18
2023-02-25T04:19:45.004Z,957.19
2023-02-25T04:20:45.359Z,957.21
2023-02-25T04:21:44.979Z,957.22
2023-02-25T04:22:45.322Z,957.21
2023-02-25T04:23:45.023Z,957.24
2023-02-25T04:24:45.076Z,957.25
2023-02-25T04:25:44.942Z,957.24
2023-02-25T04:26:45.071Z,957.28
2023-02-25T04:27:51.067Z,957.30
2023-02-25T04:28:45.080Z,957.31
2023-02-25T04:29:44.903Z,957.29
2023-02-25T04:30:45.126Z,957.31
2023-02-25T04:31:45.021Z,957.29
2023-02-25T04:32:45.151Z,957.30
2023-02-25T04:33:44.857Z,957.31
2023-02-25T04:34:44.921Z,957.28
2023-02-25T04:35:44.811Z,957.27
2023-02-25T04:36:44.997Z,957.28
2023-02-25T04:37:44.779Z,957.27
2023-02-25T04:38:45.013Z,957.31
2023-02-25T04:39:44.767Z,957.30
2023-02-25T04:40:44.967Z,957.28
2023-02-25T04:41:44.968Z,957.29
2023-02-25T04:42:44.734Z,957.30
2023-02-25T04:43:45.006Z,957.28
2023-02-25T04:44:44.718Z,957.29
2023-02-25T04:45:44.799Z,957.29
2023-02-25T04:46:44.880Z,957.32
2023-02-25T04:47:44.666Z,957.30
2023-02-25T04:48:44.965Z,957.27
2023-02-25T04:49:44.734Z,957.21
2023-02-25T04:50:44.747Z,957.25
2023-02-25T04:51:44.597Z,957.25
2023-02-25T04:52:44.757Z,957.23
2023-02-25T04:53:44.584Z,957.25
2023-02-25T04:54:44.718Z,957.27
2023-02-25T04:55:44.535Z,957.26
2023-02-25T04:56:44.676Z,957.29
2023-02-25T04:57:44.516Z,957.32
2023-02-25T04:58:44.692Z,957.30
2023-02-25T04:59:44.546Z,957.32
2023-02-25T05:00:44.650Z,957.28
2023-02-25T05:01:44.556Z,957.28
2023-02-25T05:02:44.618Z,957.30
2023-02-25T05:03:44.437Z,957.31
2023-02-25T05:04:44.695Z,957.34
2023-02-25T05:05:44.436Z,957.33
2023-02-25T05:06:44.553Z,957.35
2023-02-25T05:07:44.401Z,957.35
2023-02-25T05:08:44.562Z,957.32
2023-02-25T05:09:44.392Z,957.38
2023-02-25T05:10:44.524Z,957.37
2023-02-25T05:11:44.342Z,957.38
2023-02-25T05:12:44.560Z,957.39
2023-02-25T05:13:44.321Z,957.46
2023-02-25T05:14:44.605Z,957.47
2023-02-25T05:15:44.378Z,957.48
2023-02-25T05:16:44.368Z,957.51
2023-02-25T05:17:44.399Z,957.55
2023-02-25T05:18:44.273Z,957.53
2023-02-25T05:19:44.415Z,957.57
2023-02-25T05:20:44.454Z,957.58
2023-02-25T05:21:44.433Z,957.55
2023-02-25T05:22:44.458Z,957.56
2023-02-25T05:23:44.229Z,957.53
2023-02-25T05:24:44.469Z,957.53
2023-02-25T05:25:44.192Z,957.54
2023-02-25T05:26:44.270Z,957.55
2023-02-25T05:27:44.240Z,957.55
2023-02-25T05:28:44.145Z,957.52
2023-02-25T05:29:44.405Z,957.53
2023-02-25T05:30:44.208Z,957.51
2023-02-25T05:31:44.509Z,957.49
2023-02-25T05:32:44.236Z,957.54
2023-02-25T05:33:44.211Z,957.55
2023-02-25T05:34:44.080Z,957.52
2023-02-25T05:35:44.226Z,957.53
2023-02-25T05:36:44.079Z,957.50
2023-02-25T05:37:44.233Z,957.54
2023-02-25T05:38:44.026Z,957.56
2023-02-25T05:39:44.253Z,957.57
2023-02-25T05:40:43.995Z,957.58
2023-02-25T05:41:44.058Z,957.58
2023-02-25T05:42:44.023Z,957.60
2023-02-25T05:43:44.062Z,957.60
2023-02-25T05:44:43.949Z,957.64
2023-02-25T05:45:44.079Z,957.67
2023-02-25T05:46:44.037Z,957.65
2023-02-25T05:47:44.050Z,957.67
2023-02-25T05:48:44.067Z,957.68
2023-02-25T05:49:43.860Z,957.65
2023-02-25T05:50:44.026Z,957.66
2023-02-25T05:51:43.850Z,957.66
2023-02-25T05:52:44.068Z,957.66
2023-02-25T05:53:43.800Z,957.66
2023-02-25T05:54:43.970Z,957.66
2023-02-25T05:55:43.767Z,957.69
2023-02-25T05:56:43.926Z,957.65
2023-02-25T05:57:43.736Z,957.72
2023-02-25T05:58:43.873Z,957.71
2023-02-25T05:59:43.727Z,957.70
2023-02-25T06:00:43.904Z,957.72
2023-02-25T06:01:43.742Z,957.74
2023-02-25T06:02:43.871Z,957.71
2023-02-25T06:03:43.804Z,957.72
2023-02-25T06:04:43.696Z,957.74
2023-02-25T06:05:44.889Z,957.77
2023-02-25T06:06:43.660Z,957.75
2023-02-25T06:07:43.727Z,957.76
2023-02-25T06:08:43.671Z,957.76
2023-02-25T06:09:43.737Z,957.72
2023-02-25T06:10:43.620Z,957.73
2023-02-25T06:11:43.644Z,957.69
2023-02-25T06:12:46.260Z,957.68
2023-02-25T06:13:43.668Z,957.71
2023-02-25T06:14:43.564Z,957.72
2023-02-25T06:15:43.680Z,957.72
2023-02-25T06:16:43.546Z,957.72
2023-02-25T06:17:43.702Z,957.71
2023-02-25T06:18:43.524Z,957.78
2023-02-25T06:19:43.704Z,957.79
2023-02-25T06:20:43.474Z,957.81
2023-02-25T06:21:43.719Z,957.80
2023-02-25T06:22:43.471Z,957.79
2023-02-25T06:23:43.569Z,957.80
2023-02-25T06:24:43.547Z,957.79
2023-02-25T06:25:43.406Z,957.80
2023-02-25T06:26:43.616Z,957.83
2023-02-25T06:27:43.354Z,957.83
2023-02-25T06:28:43.585Z,957.91
2023-02-25T06:29:43.502Z,957.94
2023-02-25T06:30:43.447Z,957.95
2023-02-25T06:31:43.685Z,957.97
2023-02-25T06:32:43.370Z,958.00
2023-02-25T06:33:43.402Z,958.02
2023-02-25T06:34:43.599Z,958.00
2023-02-25T06:35:43.282Z,958.02
2023-02-25T06:36:43.542Z,958.07
2023-02-25T06:37:43.236Z,958.06
2023-02-25T06:38:43.279Z,958.10
2023-02-25T06:39:43.339Z,958.10
2023-02-25T06:40:43.254Z,958.12
2023-02-25T06:41:43.409Z,958.17
2023-02-25T06:42:43.204Z,958.16
2023-02-25T06:43:43.374Z,958.20
2023-02-25T06:44:43.209Z,958.24
2023-02-25T06:45:43.468Z,958.27
2023-02-25T06:46:43.141Z,958.29
2023-02-25T06:47:43.412Z,958.28
2023-02-25T06:48:43.117Z,958.28
2023-02-25T06:49:43.200Z,958.22
2023-02-25T06:50:43.132Z,958.19
2023-02-25T06:51:43.319Z,958.18
2023-02-25T06:52:43.071Z,958.22
2023-02-25T06:53:43.223Z,958.15
2023-02-25T06:54:43.055Z,958.15
2023-02-25T06:55:43.135Z,958.15
2023-02-25T06:56:43.046Z,958.16
2023-02-25T06:57:43.155Z,958.18
2023-02-25T06:58:43.009Z,958.18
2023-02-25T06:59:43.061Z,958.25
2023-02-25T07:00:43.209Z,958.27
2023-02-25T07:01:42.966Z,958.27
2023-02-25T07:02:43.193Z,958.30
2023-02-25T07:03:42.918Z,958.30
2023-02-25T07:04:44.175Z,958.31
2023-02-25T07:05:43.059Z,958.29
2023-02-25T07:06:42.917Z,958.26
2023-02-25T07:07:43.069Z,958.21
2023-02-25T07:08:42.912Z,958.18
2023-02-25T07:09:43.065Z,958.11
2023-02-25T07:10:42.961Z,958.16
2023-02-25T07:11:42.825Z,958.20
2023-02-25T07:12:42.997Z,958.18
2023-02-25T07:13:42.836Z,958.14
2023-02-25T07:14:42.988Z,958.13
2023-02-25T07:15:42.958Z,958.15
2023-02-25T07:16:42.826Z,958.15
2023-02-25T07:17:42.890Z,958.15
2023-02-25T07:18:42.751Z,958.20
2023-02-25T07:19:42.891Z,958.22
2023-02-25T07:20:42.720Z,958.22
2023-02-25T07:21:42.973Z,958.20
2023-02-25T07:22:42.707Z,958.25
2023-02-25T07:23:42.858Z,958.26
2023-02-25T07:24:42.668Z,958.30
2023-02-25T07:25:42.732Z,958.31
2023-02-25T07:26:42.649Z,958.34
2023-02-25T07:27:44.654Z,958.33
2023-02-25T07:28:42.623Z,958.35
2023-02-25T07:29:42.772Z,958.32
2023-02-25T07:30:42.653Z,958.35
2023-02-25T07:31:42.845Z,958.38
2023-02-25T07:32:42.823Z,958.39
2023-02-25T07:33:42.691Z,958.40
2023-02-25T07:34:42.537Z,958.43
2023-02-25T07:35:42.710Z,958.45
2023-02-25T07:36:42.528Z,958.37
2023-02-25T07:37:42.768Z,958.43
2023-02-25T07:38:42.490Z,958.44
2023-02-25T07:39:42.683Z,958.39
2023-02-25T07:40:42.472Z,958.37
2023-02-25T07:41:42.577Z,958.35
2023-02-25T07:42:42.485Z,958.35
2023-02-25T07:43:42.601Z,958.32
2023-02-25T07:44:42.425Z,958.30
2023-02-25T07:45:42.761Z,958.34
2023-02-25T07:46:42.613Z,958.35
2023-02-25T07:47:42.382Z,958.37
2023-02-25T07:48:42.670Z,958.36
2023-02-25T07:49:42.332Z,958.36
2023-02-25T07:50:42.508Z,958.42
2023-02-25T07:51:42.521Z,958.41
2023-02-25T07:52:42.313Z,958.40
2023-02-25T07:53:42.446Z,958.39
2023-02-25T07:54:42.305Z,958.35
2023-02-25T07:55:42.335Z,958.38
2023-02-25T07:56:42.531Z,958.36
2023-02-25T07:57:42.239Z,958.35
2023-02-25T07:58:42.389Z,958.30
2023-02-25T07:59:42.227Z,958.31
2023-02-25T08:00:42.461Z,958.22
2023-02-25T08:01:42.198Z,958.23
2023-02-25T08:02:42.344Z,958.19
2023-02-25T08:03:42.159Z,958.18
2023-02-25T08:04:42.264Z,958.18
2023-02-25T08:05:42.129Z,958.18
2023-02-25T08:06:42.273Z,958.17
2023-02-25T08:07:42.112Z,958.15
2023-02-25T08:08:42.240Z,958.17
2023-02-25T08:09:42.119Z,958.16
2023-02-25T08:10:42.255Z,958.13
2023-02-25T08:11:42.120Z,958.13
2023-02-25T08:12:42.265Z,958.15
2023-02-25T08:13:42.027Z,958.15
2023-02-25T08:14:42.125Z,958.15
2023-02-25T08:15:42.036Z,958.15
2023-02-25T08:16:42.150Z,958.14
2023-02-25T08:17:41.990Z,958.16
2023-02-25T08:18:42.114Z,958.17
2023-02-25T08:19:41.981Z,958.17
2023-02-25T08:20:42.136Z,958.17
2023-02-25T08:21:41.963Z,958.21
2023-02-25T08:22:42.040Z,958.24
2023-02-25T08:23:41.928Z,958.22
2023-02-25T08:24:42.045Z,958.21
2023-02-25T08:25:41.909Z,958.21
2023-02-25T08:26:42.067Z,958.13
2023-02-25T08:27:41.969Z,958.16
2023-02-25T08:28:41.866Z,958.15
2023-02-25T08:29:41.936Z,958.17
2023-02-25T08:30:41.860Z,958.12
2023-02-25T08:31:42.248Z,958.13
2023-02-25T08:32:42.113Z,958.16
2023-02-25T08:33:41.815Z,958.15
2023-02-25T08:34:41.904Z,958.17
2023-02-25T08:35:41.810Z,958.19
2023-02-25T08:36:41.917Z,958.21
2023-02-25T08:37:41.762Z,958.21
2023-02-25T08:38:41.818Z,958.20
2023-02-25T08:39:41.791Z,958.24
2023-02-25T08:40:41.729Z,958.29
2023-02-25T08:41:41.720Z,958.30
2023-02-25T08:42:41.763Z,958.33
2023-02-25T08:43:41.713Z,958.28
2023-02-25T08:44:41.859Z,958.31
2023-02-25T08:45:41.681Z,958.29
2023-02-25T08:46:41.697Z,958.28
2023-02-25T08:47:41.615Z,958.29
2023-02-25T08:48:41.728Z,958.28
2023-02-25T08:49:41.624Z,958.27
2023-02-25T08:50:41.603Z,958.30
2023-02-25T08:51:41.588Z,958.26
2023-02-25T08:52:42.359Z,958.27
2023-02-25T08:53:41.561Z,958.26
2023-02-25T08:54:41.622Z,958.25
2023-02-25T08:55:41.546Z,958.30
2023-02-25T08:56:41.628Z,958.28
2023-02-25T08:57:41.566Z,958.32
2023-02-25T08:58:41.705Z,958.41
2023-02-25T08:59:41.496Z,958.37
2023-02-25T09:00:41.568Z,958.40
2023-02-25T09:01:42.103Z,958.36
2023-02-25T09:02:41.575Z,958.32
2023-02-25T09:03:41.550Z,958.36
2023-02-25T09:04:41.438Z,958.34
2023-02-25T09:05:41.603Z,958.32
2023-02-25T09:06:41.383Z,958.31
2023-02-25T09:07:41.405Z,958.28
2023-02-25T09:08:41.484Z,958.29
2023-02-25T09:09:41.399Z,958.37
2023-02-25T09:10:50.134Z,958.38
2023-02-25T09:11:41.343Z,958.35
2023-02-25T09:12:41.415Z,958.36
2023-02-25T09:13:41.291Z,958.34
2023-02-25T09:14:41.356Z,958.33
2023-02-25T09:15:41.468Z,958.34
2023-02-25T09:16:41.435Z,958.32
2023-02-25T09:17:41.333Z,958.34
2023-02-25T09:18:41.374Z,958.34
2023-02-25T09:19:41.240Z,958.31
2023-02-25T09:20:41.404Z,958.29
2023-02-25T09:21:41.228Z,958.37
2023-02-25T09:22:41.250Z,958.35
2023-02-25T09:23:41.168Z,958.36
2023-02-25T09:24:41.283Z,958.40
2023-02-25T09:25:41.123Z,958.35
2023-02-25T09:26:41.134Z,958.34
2023-02-25T09:27:41.141Z,958.33
2023-02-25T09:28:41.150Z,958.36
2023-02-25T09:29:41.244Z,958.38
2023-02-25T09:30:41.105Z,958.35
2023-02-25T09:31:41.388Z,958.38
2023-02-25T09:32:41.206Z,958.40
2023-02-25T09:33:41.204Z,958.39
2023-02-25T09:34:40.990Z,958.35
2023-02-25T09:35:41.124Z,958.31
2023-02-25T09:36:40.973Z,958.36
2023-02-25T09:37:41.156Z,958.36
2023-02-25T09:38:40.971Z,958.30
2023-02-25T09:39:41.042Z,958.28
2023-02-25T09:40:41.069Z,958.27
2023-02-25T09:41:41.045Z,958.28
2023-02-25T09:42:40.907Z,958.30
2023-02-25T09:43:41.104Z,958.29
2023-02-25T09:44:40.963Z,958.29
2023-02-25T09:45:41.003Z,958.24
2023-02-25T09:46:40.988Z,958.25
2023-02-25T09:47:40.898Z,958.24
2023-02-25T09:48:40.891Z,958.27
2023-02-25T09:49:40.889Z,958.22
2023-02-25T09:50:40.895Z,958.17
2023-02-25T09:51:40.845Z,958.21
2023-02-25T09:52:40.998Z,958.17
2023-02-25T09:53:40.824Z,958.19
2023-02-25T09:54:41.051Z,958.25
2023-02-25T09:55:40.762Z,958.24
2023-02-25T09:56:40.841Z,958.23
2023-02-25T09:57:40.739Z,958.24
2023-02-25T09:58:40.782Z,958.24
2023-02-25T09:59:40.757Z,958.20
2023-02-25T10:00:40.811Z,958.20
2023-02-25T10:01:40.678Z,958.17
2023-02-25T10:02:41.085Z,958.19
2023-02-25T10:03:40.675Z,958.18
2023-02-25T10:04:40.792Z,958.21
2023-02-25T10:05:40.669Z,958.21
2023-02-25T10:06:42.525Z,958.21
2023-02-25T10:07:40.629Z,958.19
2023-02-25T10:08:40.727Z,958.17
2023-02-25T10:09:41.676Z,958.20
2023-02-25T10:10:40.718Z,958.18
2023-02-25T10:11:40.626Z,958.14
2023-02-25T10:12:40.655Z,958.09
2023-02-25T10:13:40.542Z,958.11
2023-02-25T10:14:40.713Z,958.08
2023-02-25T10:15:41.132Z,958.07
2023-02-25T10:16:40.521Z,958.07
2023-02-25T10:17:40.700Z,958.11
2023-02-25T10:18:40.456Z,958.07
2023-02-25T10:19:40.511Z,958.07
2023-02-25T10:20:40.542Z,958.04
2023-02-25T10:21:40.436Z,958.06
2023-02-25T10:22:40.462Z,958.16
2023-02-25T10:23:40.435Z,957.99
2023-02-25T10:24:40.514Z,957.96
2023-02-25T10:25:40.392Z,957.94
2023-02-25T10:26:40.581Z,958.05
2023-02-25T10:27:40.364Z,957.91
2023-02-25T10:28:40.549Z,957.93
2023-02-25T10:29:40.342Z,957.93
2023-02-25T10:30:40.708Z,957.92
2023-02-25T10:31:40.569Z,957.89
2023-02-25T10:32:40.407Z,957.93
2023-02-25T10:33:40.302Z,957.90
2023-02-25T10:34:40.375Z,957.92
2023-02-25T10:35:40.259Z,957.93
2023-02-25T10:36:40.332Z,957.93
2023-02-25T10:37:40.232Z,958.00
2023-02-25T10:38:40.304Z,958.03
2023-02-25T10:39:40.191Z,958.03
2023-02-25T10:40:40.329Z,957.98
2023-02-25T10:41:40.165Z,957.94
2023-02-25T10:42:40.275Z,957.96
2023-02-25T10:43:40.157Z,957.95
2023-02-25T10:44:40.268Z,957.99
2023-02-25T10:45:40.116Z,957.97
2023-02-25T10:46:40.351Z,957.98
2023-02-25T10:47:40.136Z,957.96
2023-02-25T10:48:40.177Z,957.96
2023-02-25T10:49:40.081Z,957.97
2023-02-25T10:50:45.871Z,957.93
2023-02-25T10:51:40.218Z,957.95
2023-02-25T10:52:40.035Z,957.92
2023-02-25T10:53:40.223Z,957.88
2023-02-25T10:54:39.977Z,957.94
2023-02-25T10:55:40.244Z,957.95
2023-02-25T10:56:40.078Z,957.93
2023-02-25T10:57:40.021Z,957.94
2023-02-25T10:58:40.061Z,957.94
2023-02-25T10:59:39.961Z,957.94
2023-02-25T11:00:40.065Z,957.93
2023-02-25T11:01:40.016Z,957.93
2023-02-25T11:02:39.994Z,957.91
2023-02-25T11:03:40.003Z,957.90
2023-02-25T11:04:39.862Z,957.85
2023-02-25T11:05:40.030Z,957.84
2023-02-25T11:06:39.830Z,957.83
2023-02-25T11:07:40.028Z,957.81
2023-02-25T11:08:39.816Z,957.81
2023-02-25T11:09:40.088Z,957.78
2023-02-25T11:10:39.780Z,957.82
2023-02-25T11:11:39.962Z,957.83
2023-02-25T11:12:39.791Z,957.82
2023-02-25T11:13:39.873Z,957.79
2023-02-25T11:14:39.771Z,957.79
2023-02-25T11:15:45.866Z,957.84
2023-02-25T11:16:39.810Z,957.78
2023-02-25T11:17:39.885Z,957.79
2023-02-25T11:18:39.725Z,957.78
2023-02-25T11:19:39.798Z,957.77
2023-02-25T11:20:39.679Z,957.72
2023-02-25T11:21:39.912Z,957.75
2023-02-25T11:22:39.720Z,957.75
2023-02-25T11:23:39.649Z,957.76
2023-02-25T11:24:39.770Z,957.77
2023-02-25T11:25:39.617Z,957.82
2023-02-25T11:26:39.745Z,957.81
2023-02-25T11:27:39.770Z,957.83
2023-02-25T11:28:39.545Z,957.82
2023-02-25T11:29:39.829Z,957.85
2023-02-25T11:30:39.551Z,957.91
2023-02-25T11:31:40.085Z,957.90
2023-02-25T11:32:39.532Z,957.93
2023-02-25T11:33:39.592Z,957.85
2023-02-25T11:34:39.496Z,957.84
2023-02-25T11:35:39.838Z,957.83
2023-02-25T11:36:39.452Z,957.86
2023-02-25T11:37:40.930Z,957.88
2023-02-25T11:38:39.445Z,957.86
2023-02-25T11:39:39.588Z,957.84
2023-02-25T11:40:39.406Z,957.82
2023-02-25T11:41:39.549Z,957.82
2023-02-25T11:42:39.412Z,957.81
2023-02-25T11:43:39.562Z,957.79
2023-02-25T11:44:39.374Z,957.76
2023-02-25T11:45:39.474Z,957.74
2023-02-25T11:46:39.390Z,957.79
2023-02-25T11:47:39.695Z,957.75
2023-02-25T11:48:39.281Z,957.81
2023-02-25T11:49:41.656Z,957.78
2023-02-25T11:50:39.285Z,957.73
2023-02-25T11:51:39.468Z,957.68
2023-02-25T11:52:39.264Z,957.71
2023-02-25T11:53:39.628Z,957.70
2023-02-25T11:54:39.472Z,957.68
2023-02-25T11:55:39.439Z,957.68
2023-02-25T11:56:39.547Z,957.68
2023-02-25T11:57:39.398Z,957.65
2023-02-25T11:58:39.246Z,957.70
2023-02-25T11:59:39.357Z,957.71
2023-02-25T12:00:39.137Z,957.73
2023-02-25T12:01:39.450Z,957.74
2023-02-25T12:02:39.163Z,957.72
2023-02-25T12:03:39.307Z,957.79
2023-02-25T12:04:39.139Z,957.73
2023-02-25T12:05:39.222Z,957.75
2023-02-25T12:06:39.085Z,957.75
2023-02-25T12:07:39.270Z,957.69
2023-02-25T12:08:39.102Z,957.68
2023-02-25T12:09:39.044Z,957.71
2023-02-25T12:10:39.104Z,957.75
2023-02-25T12:11:39.022Z,957.72
2023-02-25T12:12:39.234Z,957.71
2023-02-25T12:13:39.106Z,957.66
2023-02-25T12:14:38.956Z,957.61
2023-02-25T12:15:39.086Z,957.63
2023-02-25T12:16:38.947Z,957.59
2023-02-25T12:17:39.130Z,957.64
2023-02-25T12:18:39.132Z,957.65
2023-02-25T12:19:38.920Z,957.61
2023-02-25T12:20:39.084Z,957.67
2023-02-25T12:21:38.903Z,957.69
2023-02-25T12:22:39.147Z,957.69
2023-02-25T12:23:38.882Z,957.67
2023-02-25T12:24:39.096Z,957.67
2023-02-25T12:25:38.858Z,957.64
2023-02-25T12:26:38.914Z,957.71
2023-02-25T12:27:38.858Z,957.66
2023-02-25T12:28:38.881Z,957.61